sensor_id;sensor_type;location;lat;lon;timestamp;P1;durP1;ratioP1;P2;durP2;ratioP2
16254;SDS011;8235;52.198;9.904;2024-03-07T00:00:00;24.87;;;16.07;;
16254;SDS011;8235;52.198;9.904;2024-03-07T00:02:29;28.77;;;16.67;;
16254;SDS011;8235;52.198;9.904;2024-03-07T00:04:55;25.90;;;16.13;;
16254;SDS011;8235;52.198;9.904;2024-03-07T00:07:21;23.17;;;15.63;;
16254;SDS011;8235;52.198;9.904;2024-03-07T00:09:49;26.40;;;15.30;;
16254;SDS011;8235;52.198;9.904;2024-03-07T00:12:18;20.30;;;13.87;;
16254;SDS011;8235;52.198;9.904;2024-03-07T00:14:45;18.87;;;13.97;;
16254;SDS011;8235;52.198;9.904;2024-03-07T00:17:11;20.47;;;14.00;;
16254;SDS011;8235;52.198;9.904;2024-03-07T00:19:39;23.83;;;14.57;;
16254;SDS011;8235;52.198;9.904;2024-03-07T00:22:05;21.80;;;15.30;;
16254;SDS011;8235;52.198;9.904;2024-03-07T00:24:32;25.10;;;15.23;;
16254;SDS011;8235;52.198;9.904;2024-03-07T00:26:59;22.10;;;15.17;;
16254;SDS011;8235;52.198;9.904;2024-03-07T00:29:26;22.63;;;14.50;;
16254;SDS011;8235;52.198;9.904;2024-03-07T00:31:53;22.90;;;14.53;;
16254;SDS011;8235;52.198;9.904;2024-03-07T00:34:19;23.00;;;15.70;;
16254;SDS011;8235;52.198;9.904;2024-03-07T00:36:48;21.17;;;14.70;;
16254;SDS011;8235;52.198;9.904;2024-03-07T00:39:13;19.67;;;14.43;;
16254;SDS011;8235;52.198;9.904;2024-03-07T00:41:40;26.77;;;17.23;;
16254;SDS011;8235;52.198;9.904;2024-03-07T00:44:08;23.23;;;15.13;;
16254;SDS011;8235;52.198;9.904;2024-03-07T00:46:35;24.03;;;15.47;;
16254;SDS011;8235;52.198;9.904;2024-03-07T00:49:01;22.60;;;15.20;;
16254;SDS011;8235;52.198;9.904;2024-03-07T00:51:28;21.37;;;14.40;;
16254;SDS011;8235;52.198;9.904;2024-03-07T00:53:54;24.30;;;14.90;;
16254;SDS011;8235;52.198;9.904;2024-03-07T00:56:21;23.87;;;14.23;;
16254;SDS011;8235;52.198;9.904;2024-03-07T00:58:48;25.43;;;15.87;;
16254;SDS011;8235;52.198;9.904;2024-03-07T01:01:14;25.37;;;16.27;;
16254;SDS011;8235;52.198;9.904;2024-03-07T01:03:42;22.70;;;14.77;;
16254;SDS011;8235;52.198;9.904;2024-03-07T01:06:09;24.23;;;14.83;;
16254;SDS011;8235;52.198;9.904;2024-03-07T01:08:35;21.33;;;13.77;;
16254;SDS011;8235;52.198;9.904;2024-03-07T01:11:02;25.50;;;15.70;;
16254;SDS011;8235;52.198;9.904;2024-03-07T01:13:34;27.03;;;15.37;;
16254;SDS011;8235;52.198;9.904;2024-03-07T01:16:00;25.20;;;15.47;;
16254;SDS011;8235;52.198;9.904;2024-03-07T01:18:28;26.53;;;16.60;;
16254;SDS011;8235;52.198;9.904;2024-03-07T01:20:55;28.47;;;16.93;;
16254;SDS011;8235;52.198;9.904;2024-03-07T01:23:21;27.80;;;16.37;;
16254;SDS011;8235;52.198;9.904;2024-03-07T01:25:48;28.30;;;16.50;;
16254;SDS011;8235;52.198;9.904;2024-03-07T01:28:14;27.30;;;16.30;;
16254;SDS011;8235;52.198;9.904;2024-03-07T01:30:42;25.73;;;15.93;;
16254;SDS011;8235;52.198;9.904;2024-03-07T01:33:09;24.50;;;15.93;;
16254;SDS011;8235;52.198;9.904;2024-03-07T01:35:37;26.10;;;15.70;;
16254;SDS011;8235;52.198;9.904;2024-03-07T01:38:03;24.73;;;15.53;;
16254;SDS011;8235;52.198;9.904;2024-03-07T01:40:29;26.37;;;14.90;;
16254;SDS011;8235;52.198;9.904;2024-03-07T01:42:56;23.03;;;14.37;;
16254;SDS011;8235;52.198;9.904;2024-03-07T01:45:23;24.43;;;15.43;;
16254;SDS011;8235;52.198;9.904;2024-03-07T01:47:49;26.57;;;15.10;;
16254;SDS011;8235;52.198;9.904;2024-03-07T01:50:16;22.80;;;13.90;;
16254;SDS011;8235;52.198;9.904;2024-03-07T01:52:44;24.93;;;14.93;;
16254;SDS011;8235;52.198;9.904;2024-03-07T01:55:11;20.33;;;14.37;;
16254;SDS011;8235;52.198;9.904;2024-03-07T01:57:39;24.67;;;15.17;;
16254;SDS011;8235;52.198;9.904;2024-03-07T02:00:06;27.10;;;15.57;;
16254;SDS011;8235;52.198;9.904;2024-03-07T02:02:34;26.50;;;15.27;;
16254;SDS011;8235;52.198;9.904;2024-03-07T02:05:01;24.80;;;15.30;;
16254;SDS011;8235;52.198;9.904;2024-03-07T02:07:27;25.50;;;14.70;;
16254;SDS011;8235;52.198;9.904;2024-03-07T02:10:00;24.20;;;15.30;;
16254;SDS011;8235;52.198;9.904;2024-03-07T02:12:28;22.13;;;13.97;;
16254;SDS011;8235;52.198;9.904;2024-03-07T02:14:55;20.63;;;13.37;;
16254;SDS011;8235;52.198;9.904;2024-03-07T02:17:22;23.47;;;14.63;;
16254;SDS011;8235;52.198;9.904;2024-03-07T02:19:49;22.07;;;14.23;;
16254;SDS011;8235;52.198;9.904;2024-03-07T02:22:18;24.40;;;14.73;;
16254;SDS011;8235;52.198;9.904;2024-03-07T02:24:44;21.80;;;13.53;;
16254;SDS011;8235;52.198;9.904;2024-03-07T02:27:11;23.30;;;14.47;;
16254;SDS011;8235;52.198;9.904;2024-03-07T02:29:39;25.33;;;14.27;;
16254;SDS011;8235;52.198;9.904;2024-03-07T02:32:05;24.20;;;14.40;;
16254;SDS011;8235;52.198;9.904;2024-03-07T02:34:32;24.83;;;14.83;;
16254;SDS011;8235;52.198;9.904;2024-03-07T02:36:59;24.53;;;14.33;;
16254;SDS011;8235;52.198;9.904;2024-03-07T02:39:27;24.50;;;15.70;;
16254;SDS011;8235;52.198;9.904;2024-03-07T02:41:53;24.43;;;14.43;;
16254;SDS011;8235;52.198;9.904;2024-03-07T02:44:20;24.20;;;14.83;;
16254;SDS011;8235;52.198;9.904;2024-03-07T02:46:46;23.23;;;14.57;;
16254;SDS011;8235;52.198;9.904;2024-03-07T02:49:13;23.73;;;14.50;;
16254;SDS011;8235;52.198;9.904;2024-03-07T02:51:40;24.97;;;14.20;;
16254;SDS011;8235;52.198;9.904;2024-03-07T02:54:07;24.73;;;15.07;;
16254;SDS011;8235;52.198;9.904;2024-03-07T02:56:34;25.33;;;15.33;;
16254;SDS011;8235;52.198;9.904;2024-03-07T02:59:01;27.33;;;15.53;;
16254;SDS011;8235;52.198;9.904;2024-03-07T03:01:28;28.57;;;15.63;;
16254;SDS011;8235;52.198;9.904;2024-03-07T03:03:54;24.50;;;15.07;;
16254;SDS011;8235;52.198;9.904;2024-03-07T03:06:21;25.20;;;15.50;;
16254;SDS011;8235;52.198;9.904;2024-03-07T03:08:47;24.87;;;15.00;;
16254;SDS011;8235;52.198;9.904;2024-03-07T03:11:14;21.90;;;14.20;;
16254;SDS011;8235;52.198;9.904;2024-03-07T03:13:41;25.67;;;15.13;;
16254;SDS011;8235;52.198;9.904;2024-03-07T03:16:08;22.90;;;13.90;;
16254;SDS011;8235;52.198;9.904;2024-03-07T03:18:35;24.43;;;15.33;;
16254;SDS011;8235;52.198;9.904;2024-03-07T03:21:02;21.97;;;13.53;;
16254;SDS011;8235;52.198;9.904;2024-03-07T03:23:29;25.57;;;16.13;;
16254;SDS011;8235;52.198;9.904;2024-03-07T03:25:55;27.67;;;15.30;;
16254;SDS011;8235;52.198;9.904;2024-03-07T03:28:22;25.23;;;15.10;;
16254;SDS011;8235;52.198;9.904;2024-03-07T03:30:50;21.17;;;14.60;;
16254;SDS011;8235;52.198;9.904;2024-03-07T03:33:18;28.40;;;15.77;;
16254;SDS011;8235;52.198;9.904;2024-03-07T03:35:45;26.57;;;15.03;;
16254;SDS011;8235;52.198;9.904;2024-03-07T03:38:12;24.40;;;15.00;;
16254;SDS011;8235;52.198;9.904;2024-03-07T03:40:39;29.40;;;16.63;;
16254;SDS011;8235;52.198;9.904;2024-03-07T03:43:05;27.60;;;16.53;;
16254;SDS011;8235;52.198;9.904;2024-03-07T03:45:32;26.97;;;16.83;;
16254;SDS011;8235;52.198;9.904;2024-03-07T03:48:00;29.00;;;15.83;;
16254;SDS011;8235;52.198;9.904;2024-03-07T03:50:27;27.87;;;16.50;;
16254;SDS011;8235;52.198;9.904;2024-03-07T03:52:53;28.03;;;16.40;;
16254;SDS011;8235;52.198;9.904;2024-03-07T03:55:20;29.60;;;17.70;;
16254;SDS011;8235;52.198;9.904;2024-03-07T03:57:47;31.10;;;17.47;;
16254;SDS011;8235;52.198;9.904;2024-03-07T04:00:14;30.07;;;17.30;;
16254;SDS011;8235;52.198;9.904;2024-03-07T04:02:42;32.97;;;18.17;;
16254;SDS011;8235;52.198;9.904;2024-03-07T04:05:10;28.93;;;16.57;;
16254;SDS011;8235;52.198;9.904;2024-03-07T04:07:38;27.20;;;16.50;;
16254;SDS011;8235;52.198;9.904;2024-03-07T04:10:06;29.20;;;17.17;;
16254;SDS011;8235;52.198;9.904;2024-03-07T04:12:33;31.53;;;18.53;;
16254;SDS011;8235;52.198;9.904;2024-03-07T04:14:59;29.93;;;16.73;;
16254;SDS011;8235;52.198;9.904;2024-03-07T04:17:28;30.93;;;17.03;;
16254;SDS011;8235;52.198;9.904;2024-03-07T04:19:55;25.30;;;16.77;;
16254;SDS011;8235;52.198;9.904;2024-03-07T04:22:24;29.23;;;17.33;;
16254;SDS011;8235;52.198;9.904;2024-03-07T04:24:51;31.90;;;16.93;;
16254;SDS011;8235;52.198;9.904;2024-03-07T04:27:19;26.43;;;16.40;;
16254;SDS011;8235;52.198;9.904;2024-03-07T04:29:45;25.97;;;16.83;;
16254;SDS011;8235;52.198;9.904;2024-03-07T04:32:13;27.37;;;17.00;;
16254;SDS011;8235;52.198;9.904;2024-03-07T04:34:39;32.03;;;17.20;;
16254;SDS011;8235;52.198;9.904;2024-03-07T04:37:06;30.90;;;18.07;;
16254;SDS011;8235;52.198;9.904;2024-03-07T04:39:34;30.63;;;16.87;;
16254;SDS011;8235;52.198;9.904;2024-03-07T04:42:01;31.00;;;16.40;;
16254;SDS011;8235;52.198;9.904;2024-03-07T04:44:28;31.57;;;17.40;;
16254;SDS011;8235;52.198;9.904;2024-03-07T04:46:56;28.27;;;15.63;;
16254;SDS011;8235;52.198;9.904;2024-03-07T04:49:24;27.67;;;16.57;;
16254;SDS011;8235;52.198;9.904;2024-03-07T04:51:56;25.90;;;16.87;;
16254;SDS011;8235;52.198;9.904;2024-03-07T04:54:24;28.50;;;16.80;;
16254;SDS011;8235;52.198;9.904;2024-03-07T04:56:52;31.20;;;17.57;;
16254;SDS011;8235;52.198;9.904;2024-03-07T04:59:20;30.13;;;17.20;;
16254;SDS011;8235;52.198;9.904;2024-03-07T05:01:47;31.17;;;17.83;;
16254;SDS011;8235;52.198;9.904;2024-03-07T05:04:16;27.40;;;16.33;;
16254;SDS011;8235;52.198;9.904;2024-03-07T05:06:43;27.27;;;16.57;;
16254;SDS011;8235;52.198;9.904;2024-03-07T05:09:13;25.97;;;15.73;;
16254;SDS011;8235;52.198;9.904;2024-03-07T05:11:48;28.30;;;16.57;;
16254;SDS011;8235;52.198;9.904;2024-03-07T05:14:16;32.63;;;16.63;;
16254;SDS011;8235;52.198;9.904;2024-03-07T05:16:43;32.50;;;16.67;;
16254;SDS011;8235;52.198;9.904;2024-03-07T05:19:10;25.43;;;15.50;;
16254;SDS011;8235;52.198;9.904;2024-03-07T05:21:36;28.27;;;16.47;;
16254;SDS011;8235;52.198;9.904;2024-03-07T05:24:05;29.87;;;16.23;;
16254;SDS011;8235;52.198;9.904;2024-03-07T05:26:33;29.40;;;16.77;;
16254;SDS011;8235;52.198;9.904;2024-03-07T05:29:02;27.33;;;16.30;;
16254;SDS011;8235;52.198;9.904;2024-03-07T05:31:34;24.60;;;16.07;;
16254;SDS011;8235;52.198;9.904;2024-03-07T05:34:01;28.00;;;17.07;;
16254;SDS011;8235;52.198;9.904;2024-03-07T05:36:29;31.00;;;16.90;;
16254;SDS011;8235;52.198;9.904;2024-03-07T05:38:57;29.20;;;15.93;;
16254;SDS011;8235;52.198;9.904;2024-03-07T05:41:24;31.50;;;16.60;;
16254;SDS011;8235;52.198;9.904;2024-03-07T05:43:53;29.97;;;17.87;;
16254;SDS011;8235;52.198;9.904;2024-03-07T05:46:19;28.70;;;17.30;;
16254;SDS011;8235;52.198;9.904;2024-03-07T05:48:47;27.30;;;16.67;;
16254;SDS011;8235;52.198;9.904;2024-03-07T05:51:17;28.57;;;17.63;;
16254;SDS011;8235;52.198;9.904;2024-03-07T05:53:43;29.23;;;16.60;;
16254;SDS011;8235;52.198;9.904;2024-03-07T05:56:10;30.00;;;18.13;;
16254;SDS011;8235;52.198;9.904;2024-03-07T05:58:36;27.37;;;17.27;;
16254;SDS011;8235;52.198;9.904;2024-03-07T06:01:03;28.47;;;17.30;;
16254;SDS011;8235;52.198;9.904;2024-03-07T06:03:29;32.97;;;17.90;;
16254;SDS011;8235;52.198;9.904;2024-03-07T06:05:57;32.47;;;17.30;;
16254;SDS011;8235;52.198;9.904;2024-03-07T06:08:23;30.33;;;17.77;;
16254;SDS011;8235;52.198;9.904;2024-03-07T06:10:50;31.90;;;18.57;;
16254;SDS011;8235;52.198;9.904;2024-03-07T06:13:17;33.47;;;18.93;;
16254;SDS011;8235;52.198;9.904;2024-03-07T06:15:45;32.77;;;18.40;;
16254;SDS011;8235;52.198;9.904;2024-03-07T06:18:13;31.53;;;17.73;;
16254;SDS011;8235;52.198;9.904;2024-03-07T06:20:39;32.70;;;18.60;;
16254;SDS011;8235;52.198;9.904;2024-03-07T06:23:07;35.80;;;19.03;;
16254;SDS011;8235;52.198;9.904;2024-03-07T06:25:35;30.67;;;17.17;;
16254;SDS011;8235;52.198;9.904;2024-03-07T06:28:02;37.07;;;18.33;;
16254;SDS011;8235;52.198;9.904;2024-03-07T06:30:36;52.60;;;21.33;;
16254;SDS011;8235;52.198;9.904;2024-03-07T06:33:03;38.70;;;19.27;;
16254;SDS011;8235;52.198;9.904;2024-03-07T06:35:30;38.23;;;18.50;;
16254;SDS011;8235;52.198;9.904;2024-03-07T06:37:56;36.80;;;19.13;;
16254;SDS011;8235;52.198;9.904;2024-03-07T06:40:24;41.83;;;20.10;;
16254;SDS011;8235;52.198;9.904;2024-03-07T06:42:51;41.47;;;19.93;;
16254;SDS011;8235;52.198;9.904;2024-03-07T06:45:17;37.63;;;19.53;;
16254;SDS011;8235;52.198;9.904;2024-03-07T06:47:44;37.90;;;19.13;;
16254;SDS011;8235;52.198;9.904;2024-03-07T06:50:10;37.73;;;19.43;;
16254;SDS011;8235;52.198;9.904;2024-03-07T06:52:39;36.83;;;19.60;;
16254;SDS011;8235;52.198;9.904;2024-03-07T06:55:06;41.67;;;19.47;;
16254;SDS011;8235;52.198;9.904;2024-03-07T06:57:34;38.20;;;19.97;;
16254;SDS011;8235;52.198;9.904;2024-03-07T07:00:01;39.97;;;19.70;;
16254;SDS011;8235;52.198;9.904;2024-03-07T07:02:35;40.33;;;20.43;;
16254;SDS011;8235;52.198;9.904;2024-03-07T07:05:03;43.53;;;20.20;;
16254;SDS011;8235;52.198;9.904;2024-03-07T07:07:32;41.27;;;19.53;;
16254;SDS011;8235;52.198;9.904;2024-03-07T07:10:00;39.77;;;20.07;;
16254;SDS011;8235;52.198;9.904;2024-03-07T07:12:27;40.43;;;20.73;;
16254;SDS011;8235;52.198;9.904;2024-03-07T07:14:56;43.70;;;20.77;;
16254;SDS011;8235;52.198;9.904;2024-03-07T07:17:22;42.70;;;20.60;;
16254;SDS011;8235;52.198;9.904;2024-03-07T07:19:50;46.97;;;22.90;;
16254;SDS011;8235;52.198;9.904;2024-03-07T07:22:17;40.60;;;20.90;;
16254;SDS011;8235;52.198;9.904;2024-03-07T07:24:44;40.53;;;21.50;;
16254;SDS011;8235;52.198;9.904;2024-03-07T07:27:10;42.17;;;21.03;;
16254;SDS011;8235;52.198;9.904;2024-03-07T07:29:37;41.87;;;20.83;;
16254;SDS011;8235;52.198;9.904;2024-03-07T07:32:05;42.03;;;21.30;;
16254;SDS011;8235;52.198;9.904;2024-03-07T07:34:32;40.73;;;21.00;;
16254;SDS011;8235;52.198;9.904;2024-03-07T07:36:58;42.03;;;21.50;;
16254;SDS011;8235;52.198;9.904;2024-03-07T07:39:25;46.87;;;21.27;;
16254;SDS011;8235;52.198;9.904;2024-03-07T07:41:52;45.20;;;21.77;;
16254;SDS011;8235;52.198;9.904;2024-03-07T07:44:19;41.83;;;21.37;;
16254;SDS011;8235;52.198;9.904;2024-03-07T07:46:47;44.60;;;21.37;;
16254;SDS011;8235;52.198;9.904;2024-03-07T07:49:15;51.07;;;24.60;;
16254;SDS011;8235;52.198;9.904;2024-03-07T07:51:42;47.53;;;22.77;;
16254;SDS011;8235;52.198;9.904;2024-03-07T07:54:08;55.07;;;23.60;;
16254;SDS011;8235;52.198;9.904;2024-03-07T07:56:35;43.20;;;20.87;;
16254;SDS011;8235;52.198;9.904;2024-03-07T07:59:01;43.77;;;22.23;;
16254;SDS011;8235;52.198;9.904;2024-03-07T08:01:29;43.60;;;22.00;;
16254;SDS011;8235;52.198;9.904;2024-03-07T08:03:55;53.20;;;23.30;;
16254;SDS011;8235;52.198;9.904;2024-03-07T08:06:25;50.20;;;22.83;;
16254;SDS011;8235;52.198;9.904;2024-03-07T08:08:51;54.87;;;25.30;;
16254;SDS011;8235;52.198;9.904;2024-03-07T08:11:18;53.83;;;24.10;;
16254;SDS011;8235;52.198;9.904;2024-03-07T08:13:44;50.67;;;23.07;;
16254;SDS011;8235;52.198;9.904;2024-03-07T08:16:12;49.80;;;23.03;;
16254;SDS011;8235;52.198;9.904;2024-03-07T08:18:39;56.47;;;22.53;;
16254;SDS011;8235;52.198;9.904;2024-03-07T08:21:06;51.07;;;23.73;;
16254;SDS011;8235;52.198;9.904;2024-03-07T08:23:37;55.27;;;23.70;;
16254;SDS011;8235;52.198;9.904;2024-03-07T08:26:03;59.50;;;24.57;;
16254;SDS011;8235;52.198;9.904;2024-03-07T08:28:30;57.37;;;24.00;;
16254;SDS011;8235;52.198;9.904;2024-03-07T08:30:57;48.03;;;23.70;;
16254;SDS011;8235;52.198;9.904;2024-03-07T08:33:24;52.03;;;23.77;;
16254;SDS011;8235;52.198;9.904;2024-03-07T08:35:51;56.20;;;24.17;;
16254;SDS011;8235;52.198;9.904;2024-03-07T08:38:18;55.67;;;24.00;;
16254;SDS011;8235;52.198;9.904;2024-03-07T08:40:46;52.70;;;24.03;;
16254;SDS011;8235;52.198;9.904;2024-03-07T08:43:13;54.50;;;24.80;;
16254;SDS011;8235;52.198;9.904;2024-03-07T08:45:40;58.40;;;24.60;;
16254;SDS011;8235;52.198;9.904;2024-03-07T08:48:06;58.27;;;24.57;;
16254;SDS011;8235;52.198;9.904;2024-03-07T08:50:33;52.93;;;24.87;;
16254;SDS011;8235;52.198;9.904;2024-03-07T08:53:02;55.83;;;24.43;;
16254;SDS011;8235;52.198;9.904;2024-03-07T08:55:30;53.53;;;24.03;;
16254;SDS011;8235;52.198;9.904;2024-03-07T08:57:58;56.73;;;23.50;;
16254;SDS011;8235;52.198;9.904;2024-03-07T09:00:25;52.80;;;24.60;;
16254;SDS011;8235;52.198;9.904;2024-03-07T09:02:53;66.93;;;27.67;;
16254;SDS011;8235;52.198;9.904;2024-03-07T09:05:22;56.60;;;27.13;;
16254;SDS011;8235;52.198;9.904;2024-03-07T09:07:49;58.13;;;26.03;;
16254;SDS011;8235;52.198;9.904;2024-03-07T09:10:16;58.37;;;25.93;;
16254;SDS011;8235;52.198;9.904;2024-03-07T09:12:43;59.03;;;24.80;;
16254;SDS011;8235;52.198;9.904;2024-03-07T09:15:15;61.70;;;26.03;;
16254;SDS011;8235;52.198;9.904;2024-03-07T09:17:42;59.83;;;26.83;;
16254;SDS011;8235;52.198;9.904;2024-03-07T09:20:10;65.17;;;26.70;;
16254;SDS011;8235;52.198;9.904;2024-03-07T09:22:39;65.73;;;26.57;;
16254;SDS011;8235;52.198;9.904;2024-03-07T09:25:06;60.53;;;25.50;;
16254;SDS011;8235;52.198;9.904;2024-03-07T09:27:33;58.00;;;26.80;;
16254;SDS011;8235;52.198;9.904;2024-03-07T09:30:00;59.97;;;25.50;;
16254;SDS011;8235;52.198;9.904;2024-03-07T09:32:28;62.33;;;26.93;;
16254;SDS011;8235;52.198;9.904;2024-03-07T09:34:58;62.10;;;26.53;;
16254;SDS011;8235;52.198;9.904;2024-03-07T09:37:26;61.23;;;25.67;;
16254;SDS011;8235;52.198;9.904;2024-03-07T09:39:53;62.27;;;27.20;;
16254;SDS011;8235;52.198;9.904;2024-03-07T09:42:19;72.63;;;26.23;;
16254;SDS011;8235;52.198;9.904;2024-03-07T09:44:48;61.77;;;27.03;;
16254;SDS011;8235;52.198;9.904;2024-03-07T09:47:16;68.10;;;25.37;;
16254;SDS011;8235;52.198;9.904;2024-03-07T09:49:44;85.40;;;27.50;;
16254;SDS011;8235;52.198;9.904;2024-03-07T09:52:11;76.10;;;27.47;;
16254;SDS011;8235;52.198;9.904;2024-03-07T09:54:41;77.53;;;25.50;;
16254;SDS011;8235;52.198;9.904;2024-03-07T09:57:09;73.77;;;27.23;;
16254;SDS011;8235;52.198;9.904;2024-03-07T09:59:38;70.33;;;25.50;;
16254;SDS011;8235;52.198;9.904;2024-03-07T10:02:08;78.50;;;25.70;;
16254;SDS011;8235;52.198;9.904;2024-03-07T10:04:39;79.17;;;28.00;;
16254;SDS011;8235;52.198;9.904;2024-03-07T10:07:11;73.67;;;26.97;;
16254;SDS011;8235;52.198;9.904;2024-03-07T10:09:39;71.53;;;27.53;;
16254;SDS011;8235;52.198;9.904;2024-03-07T10:12:07;70.53;;;25.77;;
16254;SDS011;8235;52.198;9.904;2024-03-07T10:14:37;63.50;;;23.87;;
16254;SDS011;8235;52.198;9.904;2024-03-07T10:17:04;63.80;;;23.97;;
16254;SDS011;8235;52.198;9.904;2024-03-07T10:19:31;61.60;;;24.63;;
16254;SDS011;8235;52.198;9.904;2024-03-07T10:21:58;60.53;;;22.53;;
16254;SDS011;8235;52.198;9.904;2024-03-07T10:24:28;62.77;;;24.00;;
16254;SDS011;8235;52.198;9.904;2024-03-07T10:26:55;51.77;;;22.10;;
16254;SDS011;8235;52.198;9.904;2024-03-07T10:29:22;55.37;;;22.40;;
16254;SDS011;8235;52.198;9.904;2024-03-07T10:31:51;59.17;;;24.40;;
16254;SDS011;8235;52.198;9.904;2024-03-07T10:34:18;58.33;;;23.53;;
16254;SDS011;8235;52.198;9.904;2024-03-07T10:36:45;54.90;;;21.10;;
16254;SDS011;8235;52.198;9.904;2024-03-07T10:39:12;57.17;;;23.77;;
16254;SDS011;8235;52.198;9.904;2024-03-07T10:41:44;58.03;;;20.37;;
16254;SDS011;8235;52.198;9.904;2024-03-07T10:44:15;42.27;;;17.90;;
16254;SDS011;8235;52.198;9.904;2024-03-07T10:46:52;55.60;;;22.50;;
16254;SDS011;8235;52.198;9.904;2024-03-07T10:49:19;56.17;;;23.50;;
16254;SDS011;8235;52.198;9.904;2024-03-07T10:51:57;51.97;;;20.97;;
16254;SDS011;8235;52.198;9.904;2024-03-07T10:54:31;48.43;;;20.27;;
16254;SDS011;8235;52.198;9.904;2024-03-07T10:57:15;48.07;;;19.43;;
16254;SDS011;8235;52.198;9.904;2024-03-07T10:59:49;52.17;;;22.50;;
16254;SDS011;8235;52.198;9.904;2024-03-07T11:02:19;49.97;;;21.47;;
16254;SDS011;8235;52.198;9.904;2024-03-07T11:04:53;50.50;;;21.80;;
16254;SDS011;8235;52.198;9.904;2024-03-07T11:07:21;55.40;;;21.00;;
16254;SDS011;8235;52.198;9.904;2024-03-07T11:09:49;53.47;;;22.53;;
16254;SDS011;8235;52.198;9.904;2024-03-07T11:12:19;52.20;;;22.97;;
16254;SDS011;8235;52.198;9.904;2024-03-07T11:14:47;57.83;;;23.30;;
16254;SDS011;8235;52.198;9.904;2024-03-07T11:17:15;54.20;;;22.33;;
16254;SDS011;8235;52.198;9.904;2024-03-07T11:19:44;47.87;;;21.03;;
16254;SDS011;8235;52.198;9.904;2024-03-07T11:22:19;50.03;;;23.23;;
16254;SDS011;8235;52.198;9.904;2024-03-07T11:25:00;56.70;;;24.23;;
16254;SDS011;8235;52.198;9.904;2024-03-07T11:27:33;48.50;;;22.00;;
16254;SDS011;8235;52.198;9.904;2024-03-07T11:30:07;52.97;;;21.40;;
16254;SDS011;8235;52.198;9.904;2024-03-07T11:32:34;48.17;;;21.33;;
16254;SDS011;8235;52.198;9.904;2024-03-07T11:35:03;48.33;;;21.13;;
16254;SDS011;8235;52.198;9.904;2024-03-07T11:37:39;50.53;;;21.87;;
16254;SDS011;8235;52.198;9.904;2024-03-07T11:40:09;48.10;;;20.27;;
16254;SDS011;8235;52.198;9.904;2024-03-07T11:42:45;45.30;;;20.87;;
16254;SDS011;8235;52.198;9.904;2024-03-07T11:45:13;51.07;;;21.63;;
16254;SDS011;8235;52.198;9.904;2024-03-07T11:47:50;49.93;;;20.87;;
16254;SDS011;8235;52.198;9.904;2024-03-07T11:50:17;50.97;;;20.73;;
16254;SDS011;8235;52.198;9.904;2024-03-07T11:52:45;46.37;;;19.57;;
16254;SDS011;8235;52.198;9.904;2024-03-07T11:55:11;47.03;;;21.50;;
16254;SDS011;8235;52.198;9.904;2024-03-07T11:57:38;48.00;;;21.33;;
16254;SDS011;8235;52.198;9.904;2024-03-07T12:00:10;39.87;;;18.73;;
16254;SDS011;8235;52.198;9.904;2024-03-07T12:02:39;43.53;;;20.03;;
16254;SDS011;8235;52.198;9.904;2024-03-07T12:05:06;46.07;;;19.47;;
16254;SDS011;8235;52.198;9.904;2024-03-07T12:07:33;48.40;;;20.67;;
16254;SDS011;8235;52.198;9.904;2024-03-07T12:10:00;41.40;;;19.50;;
16254;SDS011;8235;52.198;9.904;2024-03-07T12:12:30;45.83;;;19.27;;
16254;SDS011;8235;52.198;9.904;2024-03-07T12:14:58;45.43;;;21.10;;
16254;SDS011;8235;52.198;9.904;2024-03-07T12:17:28;37.47;;;19.07;;
16254;SDS011;8235;52.198;9.904;2024-03-07T12:19:56;33.50;;;18.07;;
16254;SDS011;8235;52.198;9.904;2024-03-07T12:22:26;37.27;;;18.67;;
16254;SDS011;8235;52.198;9.904;2024-03-07T12:24:59;36.50;;;16.80;;
16254;SDS011;8235;52.198;9.904;2024-03-07T12:27:27;32.87;;;16.87;;
16254;SDS011;8235;52.198;9.904;2024-03-07T12:29:54;32.93;;;18.10;;
16254;SDS011;8235;52.198;9.904;2024-03-07T12:32:20;37.10;;;18.97;;
16254;SDS011;8235;52.198;9.904;2024-03-07T12:34:48;33.20;;;16.50;;
16254;SDS011;8235;52.198;9.904;2024-03-07T12:37:17;32.57;;;15.80;;
16254;SDS011;8235;52.198;9.904;2024-03-07T12:39:51;33.53;;;16.40;;
16254;SDS011;8235;52.198;9.904;2024-03-07T12:42:26;35.37;;;17.77;;
16254;SDS011;8235;52.198;9.904;2024-03-07T12:44:55;31.07;;;16.03;;
16254;SDS011;8235;52.198;9.904;2024-03-07T12:47:24;27.53;;;17.00;;
16254;SDS011;8235;52.198;9.904;2024-03-07T12:49:52;36.07;;;17.00;;
16254;SDS011;8235;52.198;9.904;2024-03-07T12:52:19;32.57;;;16.93;;
16254;SDS011;8235;52.198;9.904;2024-03-07T12:54:45;26.80;;;15.83;;
16254;SDS011;8235;52.198;9.904;2024-03-07T12:57:13;32.20;;;16.03;;
16254;SDS011;8235;52.198;9.904;2024-03-07T12:59:40;25.63;;;14.10;;
16254;SDS011;8235;52.198;9.904;2024-03-07T13:02:07;30.23;;;15.53;;
16254;SDS011;8235;52.198;9.904;2024-03-07T13:04:34;33.60;;;16.07;;
16254;SDS011;8235;52.198;9.904;2024-03-07T13:07:04;32.80;;;16.87;;
16254;SDS011;8235;52.198;9.904;2024-03-07T13:09:30;29.47;;;16.43;;
16254;SDS011;8235;52.198;9.904;2024-03-07T13:11:57;29.53;;;15.97;;
16254;SDS011;8235;52.198;9.904;2024-03-07T13:14:25;32.60;;;18.07;;
16254;SDS011;8235;52.198;9.904;2024-03-07T13:16:55;30.47;;;15.73;;
16254;SDS011;8235;52.198;9.904;2024-03-07T13:19:21;35.03;;;17.33;;
16254;SDS011;8235;52.198;9.904;2024-03-07T13:21:48;30.33;;;15.87;;
16254;SDS011;8235;52.198;9.904;2024-03-07T13:24:18;29.93;;;17.00;;
16254;SDS011;8235;52.198;9.904;2024-03-07T13:26:45;30.73;;;16.93;;
16254;SDS011;8235;52.198;9.904;2024-03-07T13:29:13;30.07;;;16.10;;
16254;SDS011;8235;52.198;9.904;2024-03-07T13:31:40;29.57;;;16.63;;
16254;SDS011;8235;52.198;9.904;2024-03-07T13:34:07;29.43;;;17.23;;
16254;SDS011;8235;52.198;9.904;2024-03-07T13:36:38;28.40;;;16.73;;
16254;SDS011;8235;52.198;9.904;2024-03-07T13:39:05;28.30;;;16.50;;
16254;SDS011;8235;52.198;9.904;2024-03-07T13:41:37;28.23;;;15.97;;
16254;SDS011;8235;52.198;9.904;2024-03-07T13:44:04;27.63;;;14.80;;
16254;SDS011;8235;52.198;9.904;2024-03-07T13:46:31;27.13;;;15.23;;
16254;SDS011;8235;52.198;9.904;2024-03-07T13:48:58;25.77;;;15.07;;
16254;SDS011;8235;52.198;9.904;2024-03-07T13:51:32;30.23;;;16.30;;
16254;SDS011;8235;52.198;9.904;2024-03-07T13:54:00;26.97;;;15.50;;
16254;SDS011;8235;52.198;9.904;2024-03-07T13:56:39;26.10;;;14.03;;
16254;SDS011;8235;52.198;9.904;2024-03-07T13:59:23;25.43;;;14.40;;
16254;SDS011;8235;52.198;9.904;2024-03-07T14:02:08;20.73;;;13.07;;
16254;SDS011;8235;52.198;9.904;2024-03-07T14:04:56;21.33;;;13.50;;
16254;SDS011;8235;52.198;9.904;2024-03-07T14:07:51;24.07;;;13.57;;
16254;SDS011;8235;52.198;9.904;2024-03-07T14:10:40;23.17;;;14.27;;
16254;SDS011;8235;52.198;9.904;2024-03-07T14:13:47;20.10;;;12.50;;
16254;SDS011;8235;52.198;9.904;2024-03-07T14:16:44;21.77;;;13.83;;
16254;SDS011;8235;52.198;9.904;2024-03-07T14:22:54;25.13;;;14.87;;
16254;SDS011;8235;52.198;9.904;2024-03-07T14:25:40;23.73;;;14.37;;
16254;SDS011;8235;52.198;9.904;2024-03-07T14:28:17;21.83;;;13.70;;
16254;SDS011;8235;52.198;9.904;2024-03-07T14:31:08;24.17;;;13.57;;
16254;SDS011;8235;52.198;9.904;2024-03-07T14:33:48;21.07;;;13.23;;
16254;SDS011;8235;52.198;9.904;2024-03-07T14:36:32;24.40;;;14.73;;
16254;SDS011;8235;52.198;9.904;2024-03-07T14:39:03;23.90;;;13.73;;
16254;SDS011;8235;52.198;9.904;2024-03-07T14:41:42;20.67;;;13.37;;
16254;SDS011;8235;52.198;9.904;2024-03-07T14:44:13;20.90;;;13.37;;